createdAt,value
2019-05-17T00:02:17.618Z,75.23
2019-05-17T00:04:46.941Z,75.41
2019-05-17T00:07:16.685Z,75.24
2019-05-17T00:09:47.706Z,75.20
2019-05-17T00:12:16.627Z,75.49
2019-05-17T00:14:47.143Z,75.50
2019-05-17T00:17:17.350Z,75.37
2019-05-17T00:19:46.505Z,75.47
2019-05-17T00:22:16.669Z,75.41
2019-05-17T00:24:47.554Z,75.72
2019-05-17T00:27:17.212Z,75.51
2019-05-17T00:29:46.534Z,75.73
2019-05-17T00:32:17.039Z,75.86
2019-05-17T00:34:47.013Z,75.79
2019-05-17T00:37:17.354Z,75.87
2019-05-17T00:39:47.114Z,75.61
2019-05-17T00:42:17.007Z,75.92
2019-05-17T00:44:47.366Z,75.90
2019-05-17T00:47:17.129Z,76.05
2019-05-17T00:49:46.501Z,75.96
2019-05-17T00:52:16.695Z,76.01
2019-05-17T00:54:46.954Z,75.76
2019-05-17T00:57:16.576Z,75.92
2019-05-17T00:59:47.361Z,76.18
2019-05-17T01:02:16.304Z,76.07
2019-05-17T01:04:47.397Z,76.40
2019-05-17T01:07:17.557Z,76.21
2019-05-17T01:09:47.208Z,76.30
2019-05-17T01:12:16.445Z,76.50
2019-05-17T01:14:46.648Z,76.38
2019-05-17T01:17:16.566Z,76.37
2019-05-17T01:19:47.187Z,76.17
2019-05-17T01:22:16.867Z,76.17
2019-05-17T01:24:46.297Z,76.35
2019-05-17T01:27:17.060Z,76.09
2019-05-17T01:29:46.574Z,76.58
2019-05-17T01:32:17.197Z,76.67
2019-05-17T01:34:46.926Z,76.70
2019-05-17T01:37:17.146Z,76.59
2019-05-17T01:39:46.816Z,76.85
2019-05-17T01:42:17.204Z,76.52
2019-05-17T01:44:47.231Z,76.52
2019-05-17T01:47:16.626Z,76.26
2019-05-17T01:49:46.973Z,76.42
2019-05-17T01:52:16.750Z,76.37
2019-05-17T01:54:46.958Z,76.66
2019-05-17T01:57:16.820Z,76.62
2019-05-17T01:59:46.689Z,76.45
2019-05-17T02:02:18.013Z,76.41
2019-05-17T02:04:46.816Z,76.63
2019-05-17T02:07:17.254Z,76.82
2019-05-17T02:09:47.665Z,76.76
2019-05-17T02:12:17.334Z,76.90
2019-05-17T02:14:46.783Z,76.95
2019-05-17T02:17:17.292Z,76.97
2019-05-17T02:19:46.539Z,77.09
2019-05-17T02:22:16.717Z,77.06
2019-05-17T02:24:46.434Z,77.26
2019-05-17T02:27:14.990Z,77.11
2019-05-17T02:29:43.725Z,77.31
2019-05-17T02:32:13.007Z,76.96
2019-05-17T02:34:43.054Z,76.91
2019-05-17T02:37:13.629Z,77.00
2019-05-17T02:39:53.992Z,77.03
2019-05-17T02:42:13.841Z,77.31
2019-05-17T02:44:43.754Z,77.24
2019-05-17T02:47:13.286Z,77.40
2019-05-17T02:49:42.465Z,77.15
2019-05-17T02:52:12.443Z,77.03
2019-05-17T02:54:43.742Z,77.37
2019-05-17T02:57:14.283Z,77.02
2019-05-17T02:59:43.287Z,77.06
2019-05-17T03:02:12.811Z,77.18
2019-05-17T03:04:43.281Z,77.34
2019-05-17T03:07:13.530Z,77.16
2019-05-17T03:09:43.179Z,77.23
2019-05-17T03:12:12.896Z,77.42
2019-05-17T03:14:43.295Z,77.45
2019-05-17T03:17:13.989Z,77.60
2019-05-17T03:19:43.601Z,77.51
2019-05-17T03:22:13.295Z,77.52
2019-05-17T03:24:43.935Z,77.65
2019-05-17T03:27:13.382Z,77.52
2019-05-17T03:29:42.596Z,77.80
2019-05-17T03:32:16.709Z,77.72
2019-05-17T03:34:44.987Z,77.74
2019-05-17T03:37:16.073Z,77.44
2019-05-17T03:39:42.743Z,77.82
2019-05-17T03:42:13.173Z,77.78
2019-05-17T03:44:43.809Z,77.82
2019-05-17T03:47:13.132Z,77.87
2019-05-17T03:49:43.664Z,77.94
2019-05-17T03:52:13.617Z,77.64
2019-05-17T03:54:43.058Z,77.61
2019-05-17T03:57:13.427Z,77.49
2019-05-17T03:59:43.131Z,77.65
2019-05-17T04:02:12.415Z,77.75
2019-05-17T04:04:42.869Z,78.02
2019-05-17T04:07:12.688Z,77.79
2019-05-17T04:09:43.762Z,78.03
2019-05-17T04:12:13.647Z,77.79
2019-05-17T04:14:43.039Z,77.80
2019-05-17T04:17:13.095Z,77.63
2019-05-17T04:19:42.678Z,77.75
2019-05-17T04:22:13.758Z,77.75
2019-05-17T04:24:43.786Z,77.76
2019-05-17T04:27:13.574Z,77.94
2019-05-17T04:29:42.611Z,77.98
2019-05-17T04:32:13.142Z,77.96
2019-05-17T04:34:43.713Z,77.82
2019-05-17T04:37:13.054Z,77.86
2019-05-17T04:39:43.222Z,77.93
2019-05-17T04:42:13.518Z,78.04
2019-05-17T04:44:43.245Z,78.47
2019-05-17T04:47:13.369Z,78.30
2019-05-17T04:49:44.027Z,78.23
2019-05-17T04:52:13.787Z,78.22
2019-05-17T04:54:42.812Z,78.43
2019-05-17T04:57:13.156Z,78.39
2019-05-17T04:59:43.371Z,78.31
2019-05-17T05:02:13.201Z,78.35
2019-05-17T05:04:43.585Z,78.52
2019-05-17T05:07:13.691Z,78.05
2019-05-17T05:09:43.174Z,77.75
2019-05-17T05:12:12.497Z,78.29
2019-05-17T05:14:43.106Z,77.85
2019-05-17T05:17:12.770Z,77.79
2019-05-17T05:19:42.303Z,77.77
2019-05-17T05:22:13.533Z,78.09
2019-05-17T05:24:42.355Z,78.09
2019-05-17T05:27:11.647Z,78.23
2019-05-17T05:29:41.601Z,78.32
2019-05-17T05:32:11.809Z,78.43
2019-05-17T05:34:42.762Z,78.60
2019-05-17T05:37:12.578Z,78.71
2019-05-17T05:39:41.496Z,78.71
2019-05-17T05:42:13.630Z,78.76
2019-05-17T05:44:41.561Z,78.71
2019-05-17T05:47:11.609Z,78.61
2019-05-17T05:49:42.476Z,78.68
2019-05-17T05:52:12.411Z,78.55
2019-05-17T05:54:41.323Z,78.68
2019-05-17T05:57:12.463Z,78.64
2019-05-17T05:59:42.313Z,78.60
2019-05-17T06:02:12.295Z,78.98
2019-05-17T06:04:42.392Z,78.80
2019-05-17T06:07:12.715Z,78.76
2019-05-17T06:09:42.351Z,78.79
2019-05-17T06:12:23.420Z,78.82
2019-05-17T06:14:41.702Z,78.76
2019-05-17T06:17:12.460Z,78.83
2019-05-17T06:19:42.235Z,78.70
2019-05-17T06:22:12.022Z,78.48
2019-05-17T06:24:42.462Z,78.40
2019-05-17T06:27:12.329Z,78.35
2019-05-17T06:29:41.499Z,78.32
2019-05-17T06:32:11.851Z,78.36
2019-05-17T06:34:42.314Z,78.25
2019-05-17T06:37:12.914Z,78.26
2019-05-17T06:39:41.951Z,78.21
2019-05-17T06:42:12.057Z,78.22
2019-05-17T06:44:41.748Z,78.21
2019-05-17T06:47:11.964Z,78.29
2019-05-17T06:49:42.427Z,78.29
2019-05-17T06:52:11.669Z,78.28
2019-05-17T06:54:41.732Z,78.23
2019-05-17T06:57:12.614Z,78.31
2019-05-17T06:59:40.564Z,78.18
2019-05-17T07:02:10.384Z,78.20
2019-05-17T07:04:39.598Z,78.21
2019-05-17T07:07:26.502Z,78.15
2019-05-17T07:09:55.588Z,78.18
2019-05-17T07:12:24.602Z,78.16
2019-05-17T07:14:53.101Z,78.31
2019-05-17T07:17:21.822Z,78.44
2019-05-17T07:19:50.861Z,78.48
2019-05-17T07:22:21.252Z,78.57
2019-05-17T07:24:50.262Z,78.55
2019-05-17T07:27:19.356Z,78.56
2019-05-17T07:29:49.758Z,78.50
2019-05-17T07:32:19.439Z,78.49
2019-05-17T07:34:50.055Z,78.48
2019-05-17T07:37:19.572Z,78.46
2019-05-17T07:39:58.622Z,78.41
2019-05-17T07:42:19.556Z,78.36
2019-05-17T07:44:49.663Z,78.26
2019-05-17T07:47:20.150Z,78.06
2019-05-17T07:49:49.468Z,77.98
2019-05-17T07:52:20.485Z,77.89
2019-05-17T07:54:50.667Z,77.84
2019-05-17T07:57:20.717Z,77.78
2019-05-17T07:59:50.810Z,77.81
2019-05-17T08:02:19.800Z,77.78
2019-05-17T08:04:50.139Z,77.82
2019-05-17T08:07:19.697Z,77.88
2019-05-17T08:09:50.454Z,77.93
2019-05-17T08:12:19.963Z,77.84
2019-05-17T08:14:50.237Z,77.74
2019-05-17T08:17:19.850Z,77.54
2019-05-17T08:19:49.816Z,77.61
2019-05-17T08:22:20.233Z,77.48
2019-05-17T08:24:49.375Z,77.55
2019-05-17T08:27:20.131Z,77.52
2019-05-17T08:29:49.904Z,77.38
2019-05-17T08:32:20.833Z,77.40
2019-05-17T08:34:51.679Z,77.41
2019-05-17T08:37:20.434Z,77.41
2019-05-17T08:39:50.538Z,77.43
2019-05-17T08:42:20.451Z,77.53
2019-05-17T08:44:49.830Z,77.52
2019-05-17T08:47:20.866Z,77.50
2019-05-17T08:49:49.715Z,77.43
2019-05-17T08:52:20.019Z,77.35
2019-05-17T08:54:49.576Z,77.12
2019-05-17T08:57:20.551Z,77.00
2019-05-17T08:59:49.733Z,76.83
2019-05-17T09:02:19.917Z,76.76
2019-05-17T09:04:49.787Z,76.79
2019-05-17T09:07:20.351Z,76.75
2019-05-17T09:09:50.154Z,76.76
2019-05-17T09:12:20.651Z,76.80
2019-05-17T09:14:49.678Z,76.83
2019-05-17T09:17:19.340Z,76.95
2019-05-17T09:19:50.488Z,76.85
2019-05-17T09:22:19.782Z,76.71
2019-05-17T09:24:49.953Z,76.53
2019-05-17T09:27:19.758Z,76.30
2019-05-17T09:29:49.742Z,75.98
2019-05-17T09:32:20.089Z,75.81
2019-05-17T09:34:49.829Z,75.63
2019-05-17T09:37:21.779Z,75.52
2019-05-17T09:39:49.408Z,75.24
2019-05-17T09:42:17.865Z,74.96
2019-05-17T09:44:46.360Z,74.90
2019-05-17T09:47:14.879Z,74.88
2019-05-17T09:49:43.680Z,74.96
2019-05-17T09:52:12.482Z,74.53
2019-05-17T09:54:45.116Z,74.77
2019-05-17T09:57:11.487Z,74.98
2019-05-17T09:59:40.630Z,74.79
2019-05-17T10:02:09.547Z,74.65
2019-05-17T10:04:39.520Z,74.83
2019-05-17T10:07:10.145Z,74.65
2019-05-17T10:09:40.000Z,74.09
2019-05-17T10:12:09.550Z,73.86
2019-05-17T10:14:38.187Z,73.33
2019-05-17T10:17:06.776Z,73.36
2019-05-17T10:19:35.340Z,73.07
2019-05-17T10:22:03.817Z,73.36
2019-05-17T10:24:37.976Z,73.37
2019-05-17T10:27:02.526Z,73.39
2019-05-17T10:29:31.000Z,72.58
2019-05-17T10:31:59.924Z,72.60
2019-05-17T10:34:29.422Z,72.41
2019-05-17T10:36:58.051Z,72.60
2019-05-17T10:39:26.532Z,72.88
2019-05-17T10:41:55.117Z,72.25
2019-05-17T10:44:23.613Z,72.26
2019-05-17T10:46:52.112Z,72.06
2019-05-17T10:49:20.640Z,72.00
2019-05-17T10:51:49.493Z,71.95
2019-05-17T10:54:20.613Z,71.98
2019-05-17T10:56:50.235Z,71.86
2019-05-17T10:59:20.323Z,72.22
2019-05-17T11:01:50.184Z,72.05
2019-05-17T11:04:19.762Z,71.98
2019-05-17T11:06:50.106Z,71.75
2019-05-17T11:09:20.471Z,72.06
2019-05-17T11:11:48.846Z,71.71
2019-05-17T11:14:17.373Z,71.79
2019-05-17T11:16:45.867Z,71.73
2019-05-17T11:19:14.351Z,71.65
2019-05-17T11:21:42.830Z,71.31
2019-05-17T11:24:11.346Z,71.35
2019-05-17T11:26:39.824Z,71.14
2019-05-17T11:29:08.339Z,71.33
2019-05-17T11:31:36.822Z,70.72
2019-05-17T11:34:05.337Z,70.86
2019-05-17T11:36:33.814Z,70.79
2019-05-17T11:39:02.361Z,70.73
2019-05-17T11:41:30.835Z,70.94
2019-05-17T11:43:59.315Z,70.83
2019-05-17T11:46:35.666Z,70.47
2019-05-17T11:48:58.328Z,70.25
2019-05-17T11:51:27.450Z,70.17
2019-05-17T11:53:56.131Z,70.28
2019-05-17T11:56:24.909Z,69.56
2019-05-17T11:58:53.381Z,69.63
2019-05-17T12:01:21.871Z,69.61
2019-05-17T12:03:50.359Z,69.04
2019-05-17T12:06:19.107Z,68.35
2019-05-17T12:08:47.897Z,68.58
2019-05-17T12:11:16.580Z,68.17
2019-05-17T12:13:45.140Z,68.48
2019-05-17T12:16:13.627Z,67.89
2019-05-17T12:18:42.431Z,68.13
2019-05-17T12:21:11.028Z,68.75
2019-05-17T12:23:39.495Z,68.30
2019-05-17T12:26:08.027Z,68.36
2019-05-17T12:28:36.826Z,68.45
2019-05-17T12:31:05.309Z,68.45
2019-05-17T12:33:33.800Z,68.64
2019-05-17T12:36:02.308Z,67.90
2019-05-17T12:38:31.096Z,68.17
2019-05-17T12:40:59.895Z,68.05
2019-05-17T12:43:28.671Z,67.94
2019-05-17T12:46:00.907Z,67.80
2019-05-17T12:48:27.371Z,67.77
2019-05-17T12:50:55.875Z,67.67
2019-05-17T12:53:24.361Z,67.23
2019-05-17T12:55:52.854Z,67.07
2019-05-17T12:58:21.742Z,66.40
2019-05-17T13:00:50.535Z,67.11
2019-05-17T13:03:19.271Z,66.79
2019-05-17T13:05:47.767Z,66.72
2019-05-17T13:08:16.245Z,66.74
2019-05-17T13:10:44.772Z,66.77
2019-05-17T13:13:13.226Z,65.90
2019-05-17T13:15:41.725Z,65.29
2019-05-17T13:18:10.579Z,65.16
2019-05-17T13:20:39.441Z,65.39
2019-05-17T13:23:08.217Z,64.93
2019-05-17T13:25:36.736Z,64.86
2019-05-17T13:28:05.323Z,64.95
2019-05-17T13:30:33.811Z,65.15
2019-05-17T13:33:02.320Z,64.83
2019-05-17T13:35:30.831Z,64.44
2019-05-17T13:37:59.305Z,64.14
2019-05-17T13:40:27.962Z,64.29
2019-05-17T13:42:56.432Z,64.20
2019-05-17T13:45:24.973Z,64.92
2019-05-17T13:47:53.470Z,64.23
2019-05-17T13:50:21.989Z,63.33
2019-05-17T13:52:50.449Z,63.19
2019-05-17T13:55:18.927Z,62.70
2019-05-17T13:57:47.439Z,63.11
2019-05-17T14:00:15.915Z,63.28
2019-05-17T14:02:44.393Z,63.94
2019-05-17T14:05:13.736Z,64.08
2019-05-17T14:07:42.220Z,64.34
2019-05-17T14:10:26.100Z,64.33
2019-05-17T14:12:40.951Z,63.97
2019-05-17T14:15:09.707Z,63.95
2019-05-17T14:17:38.281Z,63.43
2019-05-17T14:20:06.730Z,63.44
2019-05-17T14:22:36.091Z,63.67
2019-05-17T14:25:05.127Z,63.66
2019-05-17T14:27:33.634Z,63.66
2019-05-17T14:30:02.321Z,63.42
2019-05-17T14:32:30.786Z,63.51
2019-05-17T14:34:59.290Z,63.09
2019-05-17T14:37:27.824Z,62.56
2019-05-17T14:39:56.610Z,62.48
2019-05-17T14:42:25.102Z,62.03
2019-05-17T14:44:53.884Z,62.13
2019-05-17T14:47:22.391Z,61.50
2019-05-17T14:49:51.316Z,61.81
2019-05-17T14:52:19.815Z,61.34
2019-05-17T14:54:48.807Z,61.32
2019-05-17T14:57:17.295Z,60.83
2019-05-17T14:59:45.812Z,60.66
2019-05-17T15:02:14.331Z,60.63
2019-05-17T15:04:42.778Z,60.87
2019-05-17T15:07:11.583Z,60.69
2019-05-17T15:09:40.039Z,59.19
2019-05-17T15:12:08.520Z,58.95
2019-05-17T15:14:37.026Z,58.26
2019-05-17T15:17:05.872Z,58.16
2019-05-17T15:19:34.395Z,57.99
2019-05-17T15:22:02.912Z,58.04
2019-05-17T15:24:31.738Z,57.52
2019-05-17T15:27:05.221Z,57.64
2019-05-17T15:29:30.440Z,56.57
2019-05-17T15:31:58.931Z,56.63
2019-05-17T15:34:27.528Z,55.86
2019-05-17T15:36:56.263Z,55.57
2019-05-17T15:39:24.781Z,55.14
2019-05-17T15:41:53.282Z,54.70
2019-05-17T15:44:21.748Z,53.96
2019-05-17T15:46:50.224Z,53.01
2019-05-17T15:49:19.345Z,53.18
2019-05-17T15:51:47.802Z,53.43
2019-05-17T15:54:16.301Z,53.05
2019-05-17T15:56:45.034Z,52.87
2019-05-17T15:59:13.562Z,52.25
2019-05-17T16:01:42.070Z,52.82
2019-05-17T16:04:10.801Z,52.86
2019-05-17T16:06:39.314Z,53.05
2019-05-17T16:09:08.562Z,53.20
2019-05-17T16:11:37.340Z,53.19
2019-05-17T16:14:05.824Z,53.10
2019-05-17T16:16:34.648Z,52.76
2019-05-17T16:19:03.425Z,52.85
2019-05-17T16:21:32.213Z,52.85
2019-05-17T16:24:01.019Z,52.50
2019-05-17T16:26:29.517Z,52.28
2019-05-17T16:28:58.009Z,52.41
2019-05-17T16:31:26.507Z,52.19
2019-05-17T16:33:54.981Z,52.41
2019-05-17T16:36:23.483Z,52.40
2019-05-17T16:38:51.946Z,52.27
2019-05-17T16:41:20.498Z,52.13
2019-05-17T16:43:49.005Z,52.03
2019-05-17T16:46:17.458Z,52.22
2019-05-17T16:48:45.941Z,52.16
2019-05-17T16:51:14.443Z,51.66
2019-05-17T16:53:42.969Z,51.51
2019-05-17T16:56:11.487Z,51.40
2019-05-17T16:58:39.961Z,51.58
2019-05-17T17:01:08.471Z,51.04
2019-05-17T17:03:44.357Z,51.00
2019-05-17T17:06:10.303Z,50.75
2019-05-17T17:08:37.761Z,50.43
2019-05-17T17:11:06.234Z,50.08
2019-05-17T17:13:34.750Z,50.34
2019-05-17T17:16:03.335Z,49.96
2019-05-17T17:18:32.217Z,50.05
2019-05-17T17:21:00.700Z,50.01
2019-05-17T17:23:29.178Z,49.95
2019-05-17T17:25:57.954Z,49.85
2019-05-17T17:28:26.437Z,50.00
2019-05-17T17:30:54.922Z,49.88
2019-05-17T17:33:23.403Z,49.83
2019-05-17T17:35:51.897Z,49.78
2019-05-17T17:38:20.749Z,49.93
2019-05-17T17:40:49.279Z,50.17
2019-05-17T17:43:17.795Z,50.14
2019-05-17T17:45:46.313Z,50.34
2019-05-17T17:48:14.795Z,50.52
2019-05-17T17:50:43.977Z,50.55
2019-05-17T17:53:12.453Z,50.67
2019-05-17T17:55:41.220Z,51.14
2019-05-17T17:58:09.728Z,51.98
2019-05-17T18:00:38.235Z,52.54
2019-05-17T18:03:06.729Z,53.11
2019-05-17T18:05:35.241Z,53.63
2019-05-17T18:08:03.751Z,54.04
2019-05-17T18:10:32.754Z,54.42
2019-05-17T18:13:01.540Z,54.63
2019-05-17T18:15:41.824Z,54.73
2019-05-17T18:18:10.409Z,54.91
2019-05-17T18:20:38.881Z,55.09
2019-05-17T18:23:07.559Z,55.20
2019-05-17T18:25:36.335Z,55.21
2019-05-17T18:28:04.896Z,55.47
2019-05-17T18:30:33.448Z,55.83
2019-05-17T18:33:02.028Z,55.90
2019-05-17T18:35:30.767Z,55.89
2019-05-17T18:37:59.255Z,55.95
2019-05-17T18:40:28.051Z,56.20
2019-05-17T18:42:56.532Z,56.44
2019-05-17T18:45:25.035Z,56.54
2019-05-17T18:47:53.805Z,56.79
2019-05-17T18:50:22.304Z,56.85
2019-05-17T18:52:50.865Z,57.11
2019-05-17T18:55:19.381Z,57.21
2019-05-17T18:57:47.904Z,57.55
2019-05-17T19:00:17.295Z,57.72
2019-05-17T19:02:46.071Z,57.63
2019-05-17T19:05:14.560Z,57.71
2019-05-17T19:07:43.057Z,57.86
2019-05-17T19:10:11.692Z,58.03
2019-05-17T19:12:40.205Z,58.28
2019-05-17T19:15:10.186Z,58.16
2019-05-17T19:17:38.740Z,58.40
2019-05-17T19:20:07.300Z,58.56
2019-05-17T19:22:35.797Z,58.77
2019-05-17T19:25:05.202Z,58.90
2019-05-17T19:27:33.697Z,59.07
2019-05-17T19:30:02.262Z,59.36
2019-05-17T19:32:30.711Z,59.14
2019-05-17T19:34:59.214Z,59.49
2019-05-17T19:37:27.706Z,59.78
2019-05-17T19:39:56.219Z,59.71
2019-05-17T19:42:24.706Z,59.71
2019-05-17T19:44:58.954Z,59.84
2019-05-17T19:47:24.072Z,60.24
2019-05-17T19:49:52.656Z,60.12
2019-05-17T19:52:21.163Z,60.28
2019-05-17T19:54:49.677Z,60.41
2019-05-17T19:57:18.192Z,60.42
2019-05-17T19:59:47.009Z,60.70
2019-05-17T20:02:15.564Z,60.54
2019-05-17T20:04:44.068Z,60.88
2019-05-17T20:07:12.863Z,60.86
2019-05-17T20:09:41.613Z,61.16
2019-05-17T20:12:10.098Z,61.18
2019-05-17T20:14:38.580Z,61.24
2019-05-17T20:17:07.075Z,61.25
2019-05-17T20:19:35.576Z,61.12
2019-05-17T20:22:04.119Z,61.22
2019-05-17T20:24:32.632Z,61.57
2019-05-17T20:27:01.146Z,61.85
2019-05-17T20:29:29.677Z,61.91
2019-05-17T20:31:58.175Z,62.03
2019-05-17T20:34:26.692Z,62.10
2019-05-17T20:36:55.253Z,62.21
2019-05-17T20:39:23.858Z,62.45
2019-05-17T20:41:52.441Z,62.53
2019-05-17T20:44:20.948Z,62.79
2019-05-17T20:46:49.452Z,62.76
2019-05-17T20:49:18.037Z,62.58
2019-05-17T20:51:46.564Z,62.64
2019-05-17T20:54:15.156Z,62.91
2019-05-17T20:56:43.925Z,62.95
2019-05-17T20:59:12.753Z,63.20
2019-05-17T21:01:41.230Z,63.45
2019-05-17T21:04:09.836Z,63.49
2019-05-17T21:06:38.649Z,63.38
2019-05-17T21:09:07.922Z,63.58
2019-05-17T21:11:36.471Z,63.81
2019-05-17T21:14:05.353Z,63.98
2019-05-17T21:16:33.822Z,63.86
2019-05-17T21:19:02.625Z,63.98
2019-05-17T21:21:31.113Z,64.05
2019-05-17T21:23:59.726Z,63.98
2019-05-17T21:26:28.224Z,64.27
2019-05-17T21:28:56.703Z,64.47
2019-05-17T21:31:25.187Z,64.56
2019-05-17T21:33:53.666Z,64.49
2019-05-17T21:36:22.194Z,64.80
2019-05-17T21:38:50.684Z,64.98
2019-05-17T21:41:19.211Z,65.04
2019-05-17T21:43:47.705Z,64.97
2019-05-17T21:46:16.203Z,64.94
2019-05-17T21:48:44.770Z,64.98
2019-05-17T21:51:13.264Z,65.39
2019-05-17T21:53:41.777Z,65.51
2019-05-17T21:56:10.486Z,65.56
2019-05-17T21:58:38.965Z,65.46
2019-05-17T22:01:17.478Z,65.51
2019-05-17T22:03:45.990Z,65.56
2019-05-17T22:06:14.591Z,65.84
2019-05-17T22:08:43.073Z,65.93
2019-05-17T22:11:11.549Z,65.91
2019-05-17T22:13:40.134Z,65.93
2019-05-17T22:16:19.275Z,66.01
2019-05-17T22:18:38.864Z,66.15
2019-05-17T22:21:07.442Z,66.14
2019-05-17T22:23:35.963Z,66.08
2019-05-17T22:26:04.494Z,65.91
2019-05-17T22:28:32.986Z,66.21
2019-05-17T22:31:01.468Z,66.17
2019-05-17T22:33:30.173Z,66.56
2019-05-17T22:35:58.655Z,66.37
2019-05-17T22:38:27.653Z,66.72
2019-05-17T22:40:56.147Z,66.42
2019-05-17T22:43:24.648Z,66.60
2019-05-17T22:45:53.126Z,66.88
2019-05-17T22:48:21.615Z,66.83
2019-05-17T22:50:50.420Z,67.08
2019-05-17T22:53:18.924Z,67.17
2019-05-17T22:55:47.451Z,67.21
2019-05-17T22:58:15.938Z,67.38
2019-05-17T23:00:44.745Z,67.28
2019-05-17T23:03:13.256Z,67.36
2019-05-17T23:05:41.840Z,67.36
2019-05-17T23:08:10.320Z,67.60
2019-05-17T23:10:38.820Z,67.62
2019-05-17T23:13:07.317Z,67.61
2019-05-17T23:15:54.852Z,67.52
2019-05-17T23:18:23.366Z,67.75
2019-05-17T23:20:51.857Z,68.12
2019-05-17T23:23:20.356Z,68.28
2019-05-17T23:25:48.836Z,68.48
2019-05-17T23:28:17.389Z,68.51
2019-05-17T23:30:46.185Z,68.58
2019-05-17T23:33:14.786Z,68.64
2019-05-17T23:35:43.277Z,68.72
2019-05-17T23:38:12.139Z,68.69
2019-05-17T23:40:40.641Z,68.62
2019-05-17T23:43:09.127Z,68.68
2019-05-17T23:45:37.617Z,68.96
2019-05-17T23:48:06.140Z,69.28
2019-05-17T23:50:34.642Z,69.08
2019-05-17T23:53:03.143Z,69.19
2019-05-17T23:55:31.637Z,68.87
2019-05-17T23:58:00.507Z,69.08
